sensor_id;sensor_type;location;lat;lon;timestamp;pressure;altitude;pressure_sealevel;temperature;humidity
22872;BME280;11603;44.910;8.630;2023-05-19T00:00:57;100768.72;;;16.68;100.00
22872;BME280;11603;44.910;8.630;2023-05-19T00:03:23;100765.56;;;16.84;100.00
22872;BME280;11603;44.910;8.630;2023-05-19T00:05:52;100773.41;;;16.87;100.00
22872;BME280;11603;44.910;8.630;2023-05-19T00:08:18;100771.97;;;16.83;100.00
22872;BME280;11603;44.910;8.630;2023-05-19T00:10:45;100776.91;;;16.78;100.00
22872;BME280;11603;44.910;8.630;2023-05-19T00:13:11;100773.59;;;16.74;100.00
22872;BME280;11603;44.910;8.630;2023-05-19T00:15:37;100780.97;;;16.72;100.00
22872;BME280;11603;44.910;8.630;2023-05-19T00:18:02;100776.56;;;16.71;100.00
22872;BME280;11603;44.910;8.630;2023-05-19T00:20:28;100782.47;;;16.65;100.00
22872;BME280;11603;44.910;8.630;2023-05-19T00:22:53;100776.34;;;16.63;100.00
22872;BME280;11603;44.910;8.630;2023-05-19T00:25:19;100781.13;;;16.60;100.00
22872;BME280;11603;44.910;8.630;2023-05-19T00:27:44;100779.75;;;16.65;100.00
22872;BME280;11603;44.910;8.630;2023-05-19T00:30:10;100780.00;;;16.73;100.00
22872;BME280;11603;44.910;8.630;2023-05-19T00:32:35;100780.50;;;16.67;100.00
22872;BME280;11603;44.910;8.630;2023-05-19T00:35:01;100779.44;;;16.59;100.00
22872;BME280;11603;44.910;8.630;2023-05-19T00:37:26;100783.97;;;16.58;100.00
22872;BME280;11603;44.910;8.630;2023-05-19T00:39:52;100779.31;;;16.60;100.00
22872;BME280;11603;44.910;8.630;2023-05-19T00:42:19;100768.97;;;16.65;100.00
22872;BME280;11603;44.910;8.630;2023-05-19T00:44:45;100772.81;;;16.63;100.00
22872;BME280;11603;44.910;8.630;2023-05-19T00:47:10;100765.19;;;16.57;100.00
22872;BME280;11603;44.910;8.630;2023-05-19T00:49:36;100763.56;;;16.54;100.00
22872;BME280;11603;44.910;8.630;2023-05-19T00:52:02;100763.38;;;16.46;100.00
22872;BME280;11603;44.910;8.630;2023-05-19T00:54:29;100772.56;;;16.43;100.00
22872;BME280;11603;44.910;8.630;2023-05-19T00:56:54;100770.03;;;16.42;100.00
22872;BME280;11603;44.910;8.630;2023-05-19T00:59:22;100775.44;;;16.42;100.00
22872;BME280;11603;44.910;8.630;2023-05-19T01:01:48;100773.31;;;16.45;100.00
22872;BME280;11603;44.910;8.630;2023-05-19T01:04:18;100768.28;;;16.52;100.00
22872;BME280;11603;44.910;8.630;2023-05-19T01:06:46;100772.41;;;16.56;100.00
22872;BME280;11603;44.910;8.630;2023-05-19T01:09:12;100766.47;;;16.41;100.00
22872;BME280;11603;44.910;8.630;2023-05-19T01:11:38;100773.72;;;16.30;100.00
22872;BME280;11603;44.910;8.630;2023-05-19T01:14:04;100763.22;;;16.27;100.00
22872;BME280;11603;44.910;8.630;2023-05-19T01:32:25;100777.84;;;16.02;100.00
22872;BME280;11603;44.910;8.630;2023-05-19T01:34:54;100777.97;;;16.12;100.00
22872;BME280;11603;44.910;8.630;2023-05-19T01:37:22;100775.38;;;16.21;100.00
22872;BME280;11603;44.910;8.630;2023-05-19T01:39:49;100774.25;;;16.24;100.00
22872;BME280;11603;44.910;8.630;2023-05-19T01:42:15;100772.78;;;16.20;100.00
22872;BME280;11603;44.910;8.630;2023-05-19T01:44:42;100769.63;;;16.03;100.00
22872;BME280;11603;44.910;8.630;2023-05-19T01:47:08;100773.22;;;15.93;100.00
22872;BME280;11603;44.910;8.630;2023-05-19T01:49:35;100771.75;;;15.89;100.00
22872;BME280;11603;44.910;8.630;2023-05-19T01:52:00;100765.88;;;15.84;100.00
22872;BME280;11603;44.910;8.630;2023-05-19T01:54:26;100765.00;;;15.83;100.00
22872;BME280;11603;44.910;8.630;2023-05-19T01:57:02;100770.63;;;15.91;100.00
22872;BME280;11603;44.910;8.630;2023-05-19T02:02:25;100768.41;;;15.96;100.00
22872;BME280;11603;44.910;8.630;2023-05-19T02:04:56;100770.63;;;15.91;100.00
22872;BME280;11603;44.910;8.630;2023-05-19T02:07:36;100769.78;;;15.91;100.00
22872;BME280;11603;44.910;8.630;2023-05-19T02:10:09;100763.66;;;15.89;100.00
22872;BME280;11603;44.910;8.630;2023-05-19T02:12:38;100762.56;;;15.80;100.00
22872;BME280;11603;44.910;8.630;2023-05-19T02:15:10;100763.78;;;15.76;100.00
22872;BME280;11603;44.910;8.630;2023-05-19T02:17:39;100762.91;;;15.76;100.00
22872;BME280;11603;44.910;8.630;2023-05-19T02:20:12;100759.13;;;15.78;100.00
22872;BME280;11603;44.910;8.630;2023-05-19T02:22:38;100764.91;;;15.85;100.00
22872;BME280;11603;44.910;8.630;2023-05-19T02:25:05;100760.97;;;15.78;100.00
22872;BME280;11603;44.910;8.630;2023-05-19T02:27:32;100761.47;;;15.72;100.00
22872;BME280;11603;44.910;8.630;2023-05-19T02:29:58;100763.44;;;15.70;100.00
22872;BME280;11603;44.910;8.630;2023-05-19T02:32:23;100761.34;;;15.73;100.00
22872;BME280;11603;44.910;8.630;2023-05-19T02:34:49;100759.00;;;15.80;100.00
22872;BME280;11603;44.910;8.630;2023-05-19T02:37:15;100758.38;;;15.76;100.00
22872;BME280;11603;44.910;8.630;2023-05-19T02:39:41;100763.56;;;15.79;100.00
22872;BME280;11603;44.910;8.630;2023-05-19T02:42:07;100759.00;;;15.80;100.00
22872;BME280;11603;44.910;8.630;2023-05-19T02:44:32;100761.22;;;15.86;100.00
22872;BME280;11603;44.910;8.630;2023-05-19T02:46:58;100760.09;;;15.88;100.00
22872;BME280;11603;44.910;8.630;2023-05-19T02:49:23;100751.03;;;15.89;100.00
22872;BME280;11603;44.910;8.630;2023-05-19T02:51:49;100750.16;;;15.89;100.00
22872;BME280;11603;44.910;8.630;2023-05-19T02:54:14;100750.16;;;15.89;100.00
22872;BME280;11603;44.910;8.630;2023-05-19T02:56:40;100741.97;;;15.79;100.00
22872;BME280;11603;44.910;8.630;2023-05-19T02:59:05;100747.47;;;15.78;100.00
22872;BME280;11603;44.910;8.630;2023-05-19T03:01:31;100738.78;;;15.74;100.00
22872;BME280;11603;44.910;8.630;2023-05-19T03:03:57;100744.56;;;15.70;100.00
22872;BME280;11603;44.910;8.630;2023-05-19T03:06:23;100747.59;;;15.76;100.00
22872;BME280;11603;44.910;8.630;2023-05-19T03:08:48;100737.94;;;15.74;100.00
22872;BME280;11603;44.910;8.630;2023-05-19T03:11:14;100741.59;;;15.73;100.00
22872;BME280;11603;44.910;8.630;2023-05-19T03:13:41;100735.34;;;15.72;100.00
22872;BME280;11603;44.910;8.630;2023-05-19T03:16:06;100739.03;;;15.71;100.00
22872;BME280;11603;44.910;8.630;2023-05-19T03:18:33;100729.84;;;15.74;100.00
22872;BME280;11603;44.910;8.630;2023-05-19T03:20:58;100735.59;;;15.80;100.00
22872;BME280;11603;44.910;8.630;2023-05-19T03:23:24;100731.03;;;15.81;100.00
22872;BME280;11603;44.910;8.630;2023-05-19T03:25:51;100736.22;;;15.73;100.00
22872;BME280;11603;44.910;8.630;2023-05-19T03:28:18;100723.84;;;15.70;100.00
22872;BME280;11603;44.910;8.630;2023-05-19T03:30:44;100733.41;;;15.63;100.00
22872;BME280;11603;44.910;8.630;2023-05-19T03:33:14;100738.53;;;15.66;100.00
22872;BME280;11603;44.910;8.630;2023-05-19T03:35:40;100743.81;;;15.67;100.00
22872;BME280;11603;44.910;8.630;2023-05-19T03:38:06;100743.69;;;15.69;100.00
22872;BME280;11603;44.910;8.630;2023-05-19T03:40:32;100754.97;;;15.63;100.00
22872;BME280;11603;44.910;8.630;2023-05-19T03:43:03;100750.06;;;15.68;100.00
22872;BME280;11603;44.910;8.630;2023-05-19T03:45:30;100752.41;;;15.73;100.00
22872;BME280;11603;44.910;8.630;2023-05-19T03:47:56;100760.22;;;15.76;100.00
22872;BME280;11603;44.910;8.630;2023-05-19T03:50:50;100768.09;;;15.79;100.00
22872;BME280;11603;44.910;8.630;2023-05-19T03:53:20;100769.53;;;15.83;100.00
22872;BME280;11603;44.910;8.630;2023-05-19T03:55:46;100773.72;;;15.76;100.00
22872;BME280;11603;44.910;8.630;2023-05-19T03:58:14;100769.06;;;15.78;100.00
22872;BME280;11603;44.910;8.630;2023-05-19T04:00:40;100771.88;;;15.76;100.00
22872;BME280;11603;44.910;8.630;2023-05-19T04:03:06;100768.94;;;15.79;100.00
22872;BME280;11603;44.910;8.630;2023-05-19T04:05:32;100777.63;;;15.83;100.00
22872;BME280;11603;44.910;8.630;2023-05-19T04:07:58;100777.91;;;15.80;100.00
22872;BME280;11603;44.910;8.630;2023-05-19T04:10:24;100773.38;;;15.80;100.00
22872;BME280;11603;44.910;8.630;2023-05-19T04:12:49;100778.59;;;15.82;100.00
22872;BME280;11603;44.910;8.630;2023-05-19T04:15:15;100779.84;;;15.89;100.00
22872;BME280;11603;44.910;8.630;2023-05-19T04:17:41;100784.38;;;15.88;100.00
22872;BME280;11603;44.910;8.630;2023-05-19T04:20:08;100776.06;;;15.80;100.00
22872;BME280;11603;44.910;8.630;2023-05-19T04:22:34;100786.38;;;15.75;100.00
22872;BME280;11603;44.910;8.630;2023-05-19T04:24:59;100778.28;;;15.75;100.00
22872;BME280;11603;44.910;8.630;2023-05-19T04:27:25;100790.41;;;15.70;100.00
22872;BME280;11603;44.910;8.630;2023-05-19T04:29:53;100776.94;;;15.58;100.00
22872;BME280;11603;44.910;8.630;2023-05-19T04:32:19;100776.28;;;15.55;100.00
22872;BME280;11603;44.910;8.630;2023-05-19T04:34:44;100781.31;;;15.48;100.00
22872;BME280;11603;44.910;8.630;2023-05-19T04:37:14;100783.03;;;15.60;100.00
22872;BME280;11603;44.910;8.630;2023-05-19T04:39:44;100784.16;;;15.58;100.00
22872;BME280;11603;44.910;8.630;2023-05-19T04:42:11;100777.97;;;15.45;100.00
22872;BME280;11603;44.910;8.630;2023-05-19T04:44:38;100782.75;;;15.41;100.00
22872;BME280;11603;44.910;8.630;2023-05-19T04:47:07;100781.53;;;15.45;100.00
22872;BME280;11603;44.910;8.630;2023-05-19T04:49:34;100782.53;;;15.55;100.00
22872;BME280;11603;44.910;8.630;2023-05-19T04:52:08;100778.38;;;15.62;100.00
22872;BME280;11603;44.910;8.630;2023-05-19T04:54:38;100778.66;;;15.59;100.00
22872;BME280;11603;44.910;8.630;2023-05-19T04:57:05;100779.59;;;15.47;100.00
22872;BME280;11603;44.910;8.630;2023-05-19T04:59:34;100780.28;;;15.49;100.00
22872;BME280;11603;44.910;8.630;2023-05-19T05:02:00;100784.00;;;15.48;100.00
22872;BME280;11603;44.910;8.630;2023-05-19T05:04:28;100783.63;;;15.42;100.00
22872;BME280;11603;44.910;8.630;2023-05-19T05:06:54;100780.28;;;15.49;100.00
22872;BME280;11603;44.910;8.630;2023-05-19T05:09:20;100784.97;;;15.47;100.00
22872;BME280;11603;44.910;8.630;2023-05-19T05:11:47;100782.81;;;15.52;100.00
22872;BME280;11603;44.910;8.630;2023-05-19T05:14:13;100784.63;;;15.52;100.00
22872;BME280;11603;44.910;8.630;2023-05-19T05:16:40;100788.38;;;15.49;100.00
22872;BME280;11603;44.910;8.630;2023-05-19T05:19:09;100791.59;;;15.43;100.00
22872;BME280;11603;44.910;8.630;2023-05-19T05:21:34;100793.66;;;15.51;100.00
22872;BME280;11603;44.910;8.630;2023-05-19T05:24:00;100784.53;;;15.53;100.00
22872;BME280;11603;44.910;8.630;2023-05-19T05:26:31;100787.66;;;15.47;100.00
22872;BME280;11603;44.910;8.630;2023-05-19T05:28:57;100775.06;;;15.48;100.00
22872;BME280;11603;44.910;8.630;2023-05-19T05:31:23;100783.78;;;15.51;100.00
22872;BME280;11603;44.910;8.630;2023-05-19T05:33:48;100788.94;;;15.54;100.00
22872;BME280;11603;44.910;8.630;2023-05-19T05:36:17;100775.31;;;15.56;100.00
22872;BME280;11603;44.910;8.630;2023-05-19T05:38:42;100772.41;;;15.59;100.00
22872;BME280;11603;44.910;8.630;2023-05-19T05:41:08;100774.59;;;15.54;100.00
22872;BME280;11603;44.910;8.630;2023-05-19T05:43:35;100781.69;;;15.66;100.00
22872;BME280;11603;44.910;8.630;2023-05-19T05:46:02;100769.06;;;15.66;100.00
22872;BME280;11603;44.910;8.630;2023-05-19T05:48:28;100775.09;;;15.70;100.00
22872;BME280;11603;44.910;8.630;2023-05-19T05:50:55;100768.94;;;15.79;100.00
22872;BME280;11603;44.910;8.630;2023-05-19T05:53:25;100767.00;;;15.70;100.00
22872;BME280;11603;44.910;8.630;2023-05-19T05:55:54;100773.84;;;15.74;100.00
22872;BME280;11603;44.910;8.630;2023-05-19T05:58:24;100779.72;;;15.79;100.00
22872;BME280;11603;44.910;8.630;2023-05-19T06:00:50;100772.50;;;15.91;100.00
22872;BME280;11603;44.910;8.630;2023-05-19T06:03:17;100772.72;;;15.88;100.00
22872;BME280;11603;44.910;8.630;2023-05-19T06:05:49;100777.75;;;15.92;100.00
22872;BME280;11603;44.910;8.630;2023-05-19T06:08:14;100773.84;;;15.85;100.00
22872;BME280;11603;44.910;8.630;2023-05-19T06:10:42;100778.75;;;15.80;100.00
22872;BME280;11603;44.910;8.630;2023-05-19T06:13:09;100776.66;;;15.84;100.00
22872;BME280;11603;44.910;8.630;2023-05-19T06:15:37;100781.94;;;15.85;100.00
22872;BME280;11603;44.910;8.630;2023-05-19T06:18:08;100778.13;;;15.88;100.00
22872;BME280;11603;44.910;8.630;2023-05-19T06:20:34;100773.69;;;15.98;100.00
22872;BME280;11603;44.910;8.630;2023-05-19T06:23:00;100781.66;;;15.99;100.00
22872;BME280;11603;44.910;8.630;2023-05-19T06:25:27;100778.50;;;15.94;100.00
22872;BME280;11603;44.910;8.630;2023-05-19T06:27:53;100767.94;;;15.91;100.00
22872;BME280;11603;44.910;8.630;2023-05-19T06:30:21;100775.19;;;15.91;100.00
22872;BME280;11603;44.910;8.630;2023-05-19T06:32:58;100771.00;;;15.98;100.00
22872;BME280;11603;44.910;8.630;2023-05-19T06:35:24;100772.59;;;16.00;100.00
22872;BME280;11603;44.910;8.630;2023-05-19T06:37:50;100777.88;;;15.91;100.00
22872;BME280;11603;44.910;8.630;2023-05-19T06:40:17;100773.31;;;15.91;100.00
22872;BME280;11603;44.910;8.630;2023-05-19T06:42:43;100785.59;;;15.95;100.00
22872;BME280;11603;44.910;8.630;2023-05-19T06:45:20;100768.91;;;16.01;100.00
22872;BME280;11603;44.910;8.630;2023-05-19T06:47:49;100773.47;;;16.01;100.00
22872;BME280;11603;44.910;8.630;2023-05-19T06:50:15;100771.00;;;15.87;100.00
22872;BME280;11603;44.910;8.630;2023-05-19T06:52:42;100774.81;;;15.73;100.00
22872;BME280;11603;44.910;8.630;2023-05-19T06:55:08;100769.06;;;15.78;100.00
22872;BME280;11603;44.910;8.630;2023-05-19T06:57:36;100770.03;;;15.77;100.00
22872;BME280;11603;44.910;8.630;2023-05-19T07:00:02;100775.56;;;15.75;100.00
22872;BME280;11603;44.910;8.630;2023-05-19T07:02:29;100771.88;;;15.76;100.00
22872;BME280;11603;44.910;8.630;2023-05-19T07:04:54;100778.28;;;15.75;100.00
22872;BME280;11603;44.910;8.630;2023-05-19T07:07:21;100781.34;;;15.59;100.00
22872;BME280;11603;44.910;8.630;2023-05-19T07:09:47;100771.03;;;15.53;100.00
22872;BME280;11603;44.910;8.630;2023-05-19T07:12:13;100778.00;;;15.56;100.00
22872;BME280;11603;44.910;8.630;2023-05-19T07:14:39;100780.59;;;15.57;100.00
22872;BME280;11603;44.910;8.630;2023-05-19T07:17:05;100781.56;;;15.56;100.00
22872;BME280;11603;44.910;8.630;2023-05-19T07:19:32;100779.38;;;15.61;100.00
22872;BME280;11603;44.910;8.630;2023-05-19T07:21:57;100789.66;;;15.67;100.00
22872;BME280;11603;44.910;8.630;2023-05-19T07:24:24;100772.88;;;15.64;100.00
22872;BME280;11603;44.910;8.630;2023-05-19T07:26:49;100778.88;;;15.67;100.00
22872;BME280;11603;44.910;8.630;2023-05-19T07:29:15;100777.53;;;15.84;100.00
22872;BME280;11603;44.910;8.630;2023-05-19T07:31:40;100780.94;;;15.86;100.00
22872;BME280;11603;44.910;8.630;2023-05-19T07:34:06;100781.56;;;15.90;100.00
22872;BME280;11603;44.910;8.630;2023-05-19T07:36:31;100778.84;;;16.01;100.00
22872;BME280;11603;44.910;8.630;2023-05-19T07:38:56;100785.81;;;16.03;100.00
22872;BME280;11603;44.910;8.630;2023-05-19T07:41:22;100780.22;;;15.95;100.00
22872;BME280;11603;44.910;8.630;2023-05-19T07:43:48;100790.84;;;15.97;100.00
22872;BME280;11603;44.910;8.630;2023-05-19T07:46:14;100781.16;;;16.05;100.00
22872;BME280;11603;44.910;8.630;2023-05-19T07:48:39;100795.16;;;15.99;100.00
22872;BME280;11603;44.910;8.630;2023-05-19T07:51:05;100796.41;;;15.95;100.00
22872;BME280;11603;44.910;8.630;2023-05-19T07:53:37;100799.22;;;15.94;100.00
22872;BME280;11603;44.910;8.630;2023-05-19T07:56:03;100795.16;;;15.88;100.00
22872;BME280;11603;44.910;8.630;2023-05-19T07:58:28;100793.94;;;15.81;100.00
22872;BME280;11603;44.910;8.630;2023-05-19T08:00:57;100795.28;;;15.87;100.00
22872;BME280;11603;44.910;8.630;2023-05-19T08:03:23;100791.88;;;15.85;100.00
22872;BME280;11603;44.910;8.630;2023-05-19T08:05:49;100794.56;;;15.85;100.00
22872;BME280;11603;44.910;8.630;2023-05-19T08:08:14;100796.50;;;15.94;100.00
22872;BME280;11603;44.910;8.630;2023-05-19T08:10:44;100800.56;;;15.99;100.00
22872;BME280;11603;44.910;8.630;2023-05-19T08:13:09;100795.03;;;16.01;100.00
22872;BME280;11603;44.910;8.630;2023-05-19T08:15:35;100800.06;;;16.05;100.00
22872;BME280;11603;44.910;8.630;2023-05-19T08:18:02;100784.81;;;16.16;100.00
22872;BME280;11603;44.910;8.630;2023-05-19T08:20:29;100796.81;;;16.23;100.00
22872;BME280;11603;44.910;8.630;2023-05-19T08:22:55;100793.03;;;16.25;100.00
22872;BME280;11603;44.910;8.630;2023-05-19T08:25:20;100794.13;;;16.23;100.00
22872;BME280;11603;44.910;8.630;2023-05-19T08:27:46;100794.38;;;16.20;100.00
22872;BME280;11603;44.910;8.630;2023-05-19T08:30:12;100789.38;;;16.04;100.00
22872;BME280;11603;44.910;8.630;2023-05-19T08:32:37;100795.63;;;16.04;100.00
22872;BME280;11603;44.910;8.630;2023-05-19T08:35:03;100795.38;;;15.96;100.00
22872;BME280;11603;44.910;8.630;2023-05-19T08:37:28;100789.78;;;15.88;100.00
22872;BME280;11603;44.910;8.630;2023-05-19T08:39:54;100796.50;;;15.94;100.00
22872;BME280;11603;44.910;8.630;2023-05-19T08:42:19;100799.31;;;16.03;100.00
22872;BME280;11603;44.910;8.630;2023-05-19T08:44:45;100793.81;;;16.05;100.00
22872;BME280;11603;44.910;8.630;2023-05-19T08:47:11;100807.19;;;16.06;100.00
22872;BME280;11603;44.910;8.630;2023-05-19T08:49:44;100802.84;;;16.15;100.00
22872;BME280;11603;44.910;8.630;2023-05-19T08:55:08;100802.84;;;16.15;100.00
22872;BME280;11603;44.910;8.630;2023-05-19T08:57:37;100801.38;;;16.22;100.00
22872;BME280;11603;44.910;8.630;2023-05-19T09:00:03;100807.50;;;16.24;100.00
22872;BME280;11603;44.910;8.630;2023-05-19T09:02:48;100809.00;;;16.06;100.00
22872;BME280;11603;44.910;8.630;2023-05-19T09:05:16;100804.81;;;16.02;100.00
22872;BME280;11603;44.910;8.630;2023-05-19T09:07:43;100805.31;;;16.07;100.00
22872;BME280;11603;44.910;8.630;2023-05-19T09:10:09;100810.84;;;16.05;100.00
22872;BME280;11603;44.910;8.630;2023-05-19T09:12:39;100811.84;;;15.93;100.00
22872;BME280;11603;44.910;8.630;2023-05-19T09:15:07;100811.22;;;16.01;100.00
22872;BME280;11603;44.910;8.630;2023-05-19T09:17:34;100815.88;;;15.99;100.00
22872;BME280;11603;44.910;8.630;2023-05-19T09:20:04;100805.69;;;15.91;100.00
22872;BME280;11603;44.910;8.630;2023-05-19T09:22:45;100807.56;;;15.91;100.00
22872;BME280;11603;44.910;8.630;2023-05-19T09:25:19;100818.69;;;15.86;100.00
22872;BME280;11603;44.910;8.630;2023-05-19T09:27:46;100809.41;;;15.79;100.00
22872;BME280;11603;44.910;8.630;2023-05-19T09:30:13;100817.50;;;15.79;100.00
22872;BME280;11603;44.910;8.630;2023-05-19T09:32:39;100815.41;;;15.83;100.00
22872;BME280;11603;44.910;8.630;2023-05-19T09:35:06;100823.50;;;15.94;100.00
22872;BME280;11603;44.910;8.630;2023-05-19T09:37:31;100821.41;;;15.86;100.00
22872;BME280;11603;44.910;8.630;2023-05-19T09:39:58;100813.56;;;16.05;100.00
22872;BME280;11603;44.910;8.630;2023-05-19T09:42:24;100819.56;;;15.98;100.00
22872;BME280;11603;44.910;8.630;2023-05-19T09:45:01;100803.84;;;16.03;100.00
22872;BME280;11603;44.910;8.630;2023-05-19T09:47:28;100807.28;;;16.05;100.00
22872;BME280;11603;44.910;8.630;2023-05-19T09:49:57;100806.81;;;15.89;100.00
22872;BME280;11603;44.910;8.630;2023-05-19T09:52:22;100808.75;;;16.09;100.00
22872;BME280;11603;44.910;8.630;2023-05-19T09:54:48;100802.28;;;16.00;100.00
22872;BME280;11603;44.910;8.630;2023-05-19T09:57:16;100801.03;;;16.16;100.00
22872;BME280;11603;44.910;8.630;2023-05-19T09:59:42;100808.34;;;16.25;100.00
22872;BME280;11603;44.910;8.630;2023-05-19T10:02:12;100801.13;;;16.14;100.00
22872;BME280;11603;44.910;8.630;2023-05-19T10:04:40;100808.84;;;16.19;100.00
22872;BME280;11603;44.910;8.630;2023-05-19T10:07:07;100801.25;;;16.13;100.00
22872;BME280;11603;44.910;8.630;2023-05-19T10:09:35;100803.72;;;16.04;100.00
22872;BME280;11603;44.910;8.630;2023-05-19T10:12:01;100812.59;;;15.95;100.00
22872;BME280;11603;44.910;8.630;2023-05-19T10:14:28;100798.84;;;15.87;100.00
22872;BME280;11603;44.910;8.630;2023-05-19T10:16:55;100806.22;;;15.85;100.00
22872;BME280;11603;44.910;8.630;2023-05-19T10:19:26;100803.25;;;15.88;100.00
22872;BME280;11603;44.910;8.630;2023-05-19T10:21:53;100804.00;;;15.90;100.00
22872;BME280;11603;44.910;8.630;2023-05-19T10:24:19;100805.34;;;15.85;100.00
22872;BME280;11603;44.910;8.630;2023-05-19T10:26:58;100802.50;;;15.86;100.00
22872;BME280;11603;44.910;8.630;2023-05-19T10:29:30;100807.91;;;15.86;100.00
22872;BME280;11603;44.910;8.630;2023-05-19T10:32:01;100802.41;;;15.77;100.00
22872;BME280;11603;44.910;8.630;2023-05-19T10:40:17;100798.13;;;15.74;100.00
22872;BME280;11603;44.910;8.630;2023-05-19T10:45:44;100803.03;;;15.69;100.00
22872;BME280;11603;44.910;8.630;2023-05-19T10:48:18;100800.34;;;15.69;100.00
22872;BME280;11603;44.910;8.630;2023-05-19T10:50:45;100806.44;;;15.60;100.00
22872;BME280;11603;44.910;8.630;2023-05-19T10:53:17;100800.94;;;15.61;100.00
22872;BME280;11603;44.910;8.630;2023-05-19T10:55:45;100809.41;;;15.57;100.00
22872;BME280;11603;44.910;8.630;2023-05-19T10:58:11;100793.78;;;15.49;100.00
22872;BME280;11603;44.910;8.630;2023-05-19T11:00:38;100801.13;;;15.36;100.00
22872;BME280;11603;44.910;8.630;2023-05-19T11:03:14;100792.69;;;15.41;100.00
22872;BME280;11603;44.910;8.630;2023-05-19T11:05:40;100791.22;;;15.48;100.00
22872;BME280;11603;44.910;8.630;2023-05-19T11:08:10;100776.56;;;15.63;100.00
22872;BME280;11603;44.910;8.630;2023-05-19T11:10:36;100783.78;;;15.62;100.00
22872;BME280;11603;44.910;8.630;2023-05-19T11:13:03;100782.81;;;15.63;100.00
22872;BME280;11603;44.910;8.630;2023-05-19T11:15:33;100776.66;;;15.73;100.00
22872;BME280;11603;44.910;8.630;2023-05-19T11:18:00;100773.00;;;15.74;100.00
22872;BME280;11603;44.910;8.630;2023-05-19T11:20:27;100771.28;;;15.73;100.00
22872;BME280;11603;44.910;8.630;2023-05-19T11:23:08;100770.78;;;15.79;100.00
22872;BME280;11603;44.910;8.630;2023-05-19T11:25:50;100776.19;;;15.79;100.00
22872;BME280;11603;44.910;8.630;2023-05-19T11:28:19;100750.53;;;15.84;100.00
22872;BME280;11603;44.910;8.630;2023-05-19T11:30:47;100767.97;;;15.69;100.00
22872;BME280;11603;44.910;8.630;2023-05-19T11:33:16;100755.56;;;15.66;100.00
22872;BME280;11603;44.910;8.630;2023-05-19T11:35:49;100757.19;;;15.69;100.00
22872;BME280;11603;44.910;8.630;2023-05-19T11:38:19;100757.41;;;15.77;100.00
22872;BME280;11603;44.910;8.630;2023-05-19T11:40:45;100755.69;;;15.76;100.00
22872;BME280;11603;44.910;8.630;2023-05-19T11:43:12;100750.19;;;15.78;100.00
22872;BME280;11603;44.910;8.630;2023-05-19T11:45:38;100754.50;;;15.69;100.00
22872;BME280;11603;44.910;8.630;2023-05-19T11:48:03;100754.38;;;15.59;100.00
22872;BME280;11603;44.910;8.630;2023-05-19T11:50:30;100751.16;;;15.65;100.00
22872;BME280;11603;44.910;8.630;2023-05-19T11:52:59;100756.22;;;15.59;100.00
22872;BME280;11603;44.910;8.630;2023-05-19T11:55:25;100755.34;;;15.58;100.00
22872;BME280;11603;44.910;8.630;2023-05-19T11:57:59;100745.06;;;15.52;100.00
22872;BME280;11603;44.910;8.630;2023-05-19T12:00:25;100757.03;;;15.48;100.00
22872;BME280;11603;44.910;8.630;2023-05-19T12:02:52;100754.34;;;15.48;100.00
22872;BME280;11603;44.910;8.630;2023-05-19T12:05:27;100751.38;;;15.40;100.00
22872;BME280;11603;44.910;8.630;2023-05-19T12:07:53;100740.22;;;15.34;100.00
22872;BME280;11603;44.910;8.630;2023-05-19T12:10:28;100747.22;;;15.36;100.00
22872;BME280;11603;44.910;8.630;2023-05-19T12:12:55;100740.22;;;15.34;100.00
22872;BME280;11603;44.910;8.630;2023-05-19T12:15:21;100747.97;;;15.27;100.00
22872;BME280;11603;44.910;8.630;2023-05-19T12:17:58;100740.00;;;15.37;100.00
22872;BME280;11603;44.910;8.630;2023-05-19T12:20:25;100740.84;;;15.37;100.00
22872;BME280;11603;44.910;8.630;2023-05-19T12:22:53;100752.28;;;15.52;100.00
22872;BME280;11603;44.910;8.630;2023-05-19T12:25:19;100754.00;;;15.64;100.00
22872;BME280;11603;44.910;8.630;2023-05-19T12:27:44;100752.88;;;15.78;100.00
22872;BME280;11603;44.910;8.630;2023-05-19T12:30:11;100757.00;;;15.93;100.00
22872;BME280;11603;44.910;8.630;2023-05-19T12:32:39;100747.44;;;16.00;100.00
22872;BME280;11603;44.910;8.630;2023-05-19T12:35:05;100745.72;;;15.99;100.00
22872;BME280;11603;44.910;8.630;2023-05-19T12:37:32;100745.84;;;15.97;100.00
22872;BME280;11603;44.910;8.630;2023-05-19T12:39:58;100739.75;;;15.95;100.00
22872;BME280;11603;44.910;8.630;2023-05-19T12:42:27;100746.47;;;16.01;100.00
22872;BME280;11603;44.910;8.630;2023-05-19T12:44:59;100755.94;;;15.95;100.00
22872;BME280;11603;44.910;8.630;2023-05-19T12:47:32;100743.63;;;16.02;100.00
22872;BME280;11603;44.910;8.630;2023-05-19T12:52:25;100748.72;;;15.85;100.00
22872;BME280;11603;44.910;8.630;2023-05-19T12:57:27;100751.91;;;15.79;100.00
22872;BME280;11603;44.910;8.630;2023-05-19T12:59:59;100753.75;;;15.67;100.00
22872;BME280;11603;44.910;8.630;2023-05-19T13:02:25;100742.47;;;15.73;100.00
22872;BME280;11603;44.910;8.630;2023-05-19T13:04:50;100738.69;;;15.64;100.00
22872;BME280;11603;44.910;8.630;2023-05-19T13:07:19;100739.66;;;15.52;100.00
22872;BME280;11603;44.910;8.630;2023-05-19T13:09:44;100745.28;;;15.38;100.00
22872;BME280;11603;44.910;8.630;2023-05-19T13:12:10;100734.84;;;15.34;100.00
22872;BME280;11603;44.910;8.630;2023-05-19T13:14:35;100736.94;;;15.30;100.00
22872;BME280;11603;44.910;8.630;2023-05-19T13:17:01;100737.53;;;15.34;100.00